Rechercher aéroport 
image banner adimage banner adimage banner ad
image banner ad

55CL - Strain Ranch

Situé à Arbuckle, United States

ICAO - 55CL, IATA -

Données fournies par Airmate  

Information générale

Coordonnées: N39°3'11" W122°5'44"
Élévation : 123 feet MSL.
 
Voir autres Aéroports à California

Données opérationnelles

Special qualification required
Heure actuelle UTC:
Heure actuelle locale:
Météo à : KMYV - Yuba County ( 46 km )
METAR: KMYV 251553Z AUTO 17008KT 10SM CLR 23/09 A2991 RMK AO2 SLP130 T02280094
Voir NOTAMs / SUP AIP / TFR affectant cet aéroport [VIEW]
Fréquences de communication: [VIEW]

Pistes:

Identifiant RWYQFULongueur (ft)Largeur (ft)SurfaceLDA (ft)
17300040ASPH
35300040ASPH

Coordonnées de l'aéroport

Adresse: Arbuckle United States

Vue satellite de 55CL